PWSweather.com
Personal Weather Stations
Station Observations
FEDE1991
Gimnasia, ChivilcoyAR

GimnasiaChivilcoyAR

Lat: -34.8841772, Lon: -60.0315799

Elevation: 36

Station Type: WH1081

http://climachivilcoy.blogspot.com.ar/

Latest ConditionsUpdated 7:23:43 PM GMT-03:57 Friday, Jul 21, 2017
Currently Today's Max Today's Min Today's Average
Temperature 57.9°F14.4°C 64.9°F18.3°C 44.2°F6.8°C 53.7°F12.1°C
Dew Point 42.8°F6.0°C 48.0°F8.9°C 39.2°F4.0°C 41.8°F5.4°C
Winds 3.1 mph E5.0 kmh E 9.2 mph E14.8 kmh E - 3.5 mph 5.6 kmh
Wind Gusts 6.0 mph9.7 kmh 14.5 mph23.3 kmh - -
Humidity 57% 94% 41% 67%
Pressure 29.97 in1014.9 mb 29.98 in1015.2 mb 29.88 in1011.9 mb -
Hour Temp Dew Point Humidity Winds Wind Gusts Pressure Precip Precip Rate Daily Precip Total
07:23 PM 57.9°F14.4°C 42.8°F6.0°C 57% 3.1 mph E5.0 kmh E 6.0 mph9.7 kmh 29.97 in1014.9 mb 0.00 in0.0 mm 0.00 in0.0 mm 0.00 in0.0 mm
07:13 PM 58.8°F14.9°C 43.7°F6.5°C 57% 4.5 mph E7.2 kmh E 6.9 mph11.1 kmh 29.96 in1014.6 mb 0.00 in0.0 mm 0.00 in0.0 mm 0.00 in0.0 mm
07:03 PM 59.2°F15.1°C 43.0°F6.1°C 55% 4.5 mph E7.2 kmh E 6.9 mph11.1 kmh 29.97 in1014.9 mb 0.00 in0.0 mm 0.00 in0.0 mm 0.00 in0.0 mm
06:53 PM 59.7°F15.4°C 42.6°F5.9°C 53% 3.1 mph E5.0 kmh E 5.4 mph8.7 kmh 29.98 in1015.2 mb 0.00 in0.0 mm 0.00 in0.0 mm 0.00 in0.0 mm
06:43 PM 60.3°F15.7°C 42.1°F5.6°C 51% 3.1 mph E5.0 kmh E 6.0 mph9.7 kmh 29.97 in1014.9 mb 0.00 in0.0 mm 0.00 in0.0 mm 0.00 in0.0 mm
06:33 PM 60.6°F15.9°C 41.9°F5.5°C 50% 3.8 mph E6.1 kmh E 6.0 mph9.7 kmh 29.97 in1014.9 mb 0.00 in0.0 mm 0.00 in0.0 mm 0.00 in0.0 mm
06:23 PM 61.5°F16.4°C 41.7°F5.4°C 48% 3.1 mph ENE5.0 kmh ENE 5.4 mph8.7 kmh 29.96 in1014.6 mb 0.00 in0.0 mm 0.00 in0.0 mm 0.00 in0.0 mm
06:13 PM 62.1°F16.7°C 41.5°F5.3°C 47% 2.2 mph NE3.5 kmh NE 6.0 mph9.7 kmh 29.96 in1014.6 mb 0.00 in0.0 mm 0.00 in0.0 mm 0.00 in0.0 mm
06:02 PM 62.8°F17.1°C 41.7°F5.4°C 46% 2.2 mph ENE3.5 kmh ENE 4.5 mph7.2 kmh 29.96 in1014.6 mb 0.00 in0.0 mm 0.00 in0.0 mm 0.00 in0.0 mm
05:52 PM 63.1°F17.3°C 41.5°F5.3°C 45% 3.1 mph NE5.0 kmh NE 6.0 mph9.7 kmh 29.97 in1014.9 mb 0.00 in0.0 mm 0.00 in0.0 mm 0.00 in0.0 mm
05:42 PM 63.3°F17.4°C 41.0°F5.0°C 44% 3.1 mph NE5.0 kmh NE 6.0 mph9.7 kmh 29.97 in1014.9 mb 0.00 in0.0 mm 0.00 in0.0 mm 0.00 in0.0 mm
05:32 PM 63.7°F17.6°C 40.8°F4.9°C 43% 3.1 mph E5.0 kmh E 6.0 mph9.7 kmh 29.98 in1015.2 mb 0.00 in0.0 mm 0.00 in0.0 mm 0.00 in0.0 mm
05:22 PM 64.0°F17.8°C 41.2°F5.1°C 43% 2.2 mph E3.5 kmh E 6.9 mph11.1 kmh 29.98 in1015.2 mb 0.00 in0.0 mm 0.00 in0.0 mm 0.00 in0.0 mm
05:12 PM 64.0°F17.8°C 41.2°F5.1°C 43% 3.8 mph NE6.1 kmh NE 6.9 mph11.1 kmh 29.97 in1014.9 mb 0.00 in0.0 mm 0.00 in0.0 mm 0.00 in0.0 mm
05:02 PM 64.2°F17.9°C 40.6°F4.8°C 42% 4.5 mph E7.2 kmh E 7.6 mph12.2 kmh 29.97 in1014.9 mb 0.00 in0.0 mm 0.00 in0.0 mm 0.00 in0.0 mm
04:52 PM 64.4°F18.0°C 40.8°F4.9°C 42% 3.8 mph NNE6.1 kmh NNE 8.3 mph13.4 kmh 29.97 in1014.9 mb 0.00 in0.0 mm 0.00 in0.0 mm 0.00 in0.0 mm
04:42 PM 64.6°F18.1°C 41.0°F5.0°C 42% 5.4 mph NE8.7 kmh NE 7.6 mph12.2 kmh 29.97 in1014.9 mb 0.00 in0.0 mm 0.00 in0.0 mm 0.00 in0.0 mm
04:31 PM 64.6°F18.1°C 40.3°F4.6°C 41% 6.0 mph ENE9.7 kmh ENE 9.2 mph14.8 kmh 29.97 in1014.9 mb 0.00 in0.0 mm 0.00 in0.0 mm 0.00 in0.0 mm
04:21 PM 64.8°F18.2°C 40.5°F4.7°C 41% 3.1 mph NE5.0 kmh NE 7.6 mph12.2 kmh 29.97 in1014.9 mb 0.00 in0.0 mm 0.00 in0.0 mm 0.00 in0.0 mm
04:11 PM 64.6°F18.1°C 40.3°F4.6°C 41% 3.8 mph NE6.1 kmh NE 9.8 mph15.8 kmh 29.96 in1014.6 mb 0.00 in0.0 mm 0.00 in0.0 mm 0.00 in0.0 mm
04:01 PM 64.8°F18.2°C 40.5°F4.7°C 41% 4.5 mph E7.2 kmh E 11.4 mph18.3 kmh 29.96 in1014.6 mb 0.00 in0.0 mm 0.00 in0.0 mm 0.00 in0.0 mm
03:51 PM 64.9°F18.3°C 41.4°F5.2°C 42% 3.8 mph NE6.1 kmh NE 12.1 mph19.5 kmh 29.96 in1014.6 mb 0.00 in0.0 mm 0.00 in0.0 mm 0.00 in0.0 mm
03:41 PM 64.6°F18.1°C 41.0°F5.0°C 42% 2.2 mph NE3.5 kmh NE 9.2 mph14.8 kmh 29.96 in1014.6 mb 0.00 in0.0 mm 0.00 in0.0 mm 0.00 in0.0 mm
03:31 PM 64.2°F17.9°C 40.6°F4.8°C 42% 3.1 mph E5.0 kmh E 8.3 mph13.4 kmh 29.96 in1014.6 mb 0.00 in0.0 mm 0.00 in0.0 mm 0.00 in0.0 mm
03:21 PM 64.4°F18.0°C 40.8°F4.9°C 42% 4.5 mph ESE7.2 kmh ESE 10.7 mph17.2 kmh 29.96 in1014.6 mb 0.00 in0.0 mm 0.00 in0.0 mm 0.00 in0.0 mm
03:11 PM 64.0°F17.8°C 39.9°F4.4°C 41% 7.6 mph E12.2 kmh E 10.7 mph17.2 kmh 29.96 in1014.6 mb 0.00 in0.0 mm 0.00 in0.0 mm 0.00 in0.0 mm
03:01 PM 64.4°F18.0°C 40.1°F4.5°C 41% 4.5 mph E7.2 kmh E 8.3 mph13.4 kmh 29.96 in1014.6 mb 0.00 in0.0 mm 0.00 in0.0 mm 0.00 in0.0 mm
02:50 PM 64.2°F17.9°C 40.6°F4.8°C 42% 6.0 mph E9.7 kmh E 8.3 mph13.4 kmh 29.97 in1014.9 mb 0.00 in0.0 mm 0.00 in0.0 mm 0.00 in0.0 mm
02:40 PM 63.9°F17.7°C 40.3°F4.6°C 42% 5.4 mph E8.7 kmh E 7.6 mph12.2 kmh 29.97 in1014.9 mb 0.00 in0.0 mm 0.00 in0.0 mm 0.00 in0.0 mm
02:30 PM 63.9°F17.7°C 40.3°F4.6°C 42% 4.5 mph NNE7.2 kmh NNE 9.2 mph14.8 kmh 29.97 in1014.9 mb 0.00 in0.0 mm 0.00 in0.0 mm 0.00 in0.0 mm
02:20 PM 64.0°F17.8°C 39.9°F4.4°C 41% 4.5 mph SE7.2 kmh SE 7.6 mph12.2 kmh 29.96 in1014.6 mb 0.00 in0.0 mm 0.00 in0.0 mm 0.00 in0.0 mm
02:10 PM 63.3°F17.4°C 39.9°F4.4°C 42% 3.8 mph NE6.1 kmh NE 9.2 mph14.8 kmh 29.97 in1014.9 mb 0.00 in0.0 mm 0.00 in0.0 mm 0.00 in0.0 mm
02:00 PM 63.1°F17.3°C 39.7°F4.3°C 42% 4.5 mph E7.2 kmh E 9.2 mph14.8 kmh 29.97 in1014.9 mb 0.00 in0.0 mm 0.00 in0.0 mm 0.00 in0.0 mm
01:50 PM 63.1°F17.3°C 40.3°F4.6°C 43% 5.4 mph NE8.7 kmh NE 9.2 mph14.8 kmh 29.98 in1015.2 mb 0.00 in0.0 mm 0.00 in0.0 mm 0.00 in0.0 mm
01:40 PM 63.0°F17.2°C 41.4°F5.2°C 45% 3.1 mph E5.0 kmh E 9.8 mph15.8 kmh 29.97 in1014.9 mb 0.00 in0.0 mm 0.00 in0.0 mm 0.00 in0.0 mm
01:30 PM 62.8°F17.1°C 41.2°F5.1°C 45% 3.1 mph ENE5.0 kmh ENE 10.7 mph17.2 kmh 29.97 in1014.9 mb 0.00 in0.0 mm 0.00 in0.0 mm 0.00 in0.0 mm
01:20 PM 62.2°F16.8°C 40.6°F4.8°C 45% 7.6 mph E12.2 kmh E 11.4 mph18.3 kmh 29.98 in1015.2 mb 0.00 in0.0 mm 0.00 in0.0 mm 0.00 in0.0 mm
01:09 PM 62.2°F16.8°C 41.7°F5.4°C 47% 5.4 mph E8.7 kmh E 12.1 mph19.5 kmh 29.97 in1014.9 mb 0.00 in0.0 mm 0.00 in0.0 mm 0.00 in0.0 mm
12:59 PM 61.9°F16.6°C 42.4°F5.8°C 49% 6.9 mph E11.1 kmh E 13.0 mph20.9 kmh 29.97 in1014.9 mb 0.00 in0.0 mm 0.00 in0.0 mm 0.00 in0.0 mm
12:49 PM 61.5°F16.4°C 42.6°F5.9°C 50% 6.9 mph E11.1 kmh E 11.4 mph18.3 kmh 29.97 in1014.9 mb 0.00 in0.0 mm 0.00 in0.0 mm 0.00 in0.0 mm
12:39 PM 61.2°F16.2°C 42.4°F5.8°C 50% 5.4 mph E8.7 kmh E 11.4 mph18.3 kmh 29.97 in1014.9 mb 0.00 in0.0 mm 0.00 in0.0 mm 0.00 in0.0 mm
12:29 PM 61.0°F16.1°C 42.3°F5.7°C 50% 7.6 mph E12.2 kmh E 13.0 mph20.9 kmh 29.97 in1014.9 mb 0.00 in0.0 mm 0.00 in0.0 mm 0.00 in0.0 mm
12:19 PM 60.1°F15.6°C 42.4°F5.8°C 52% 6.9 mph E11.1 kmh E 13.0 mph20.9 kmh 29.97 in1014.9 mb 0.00 in0.0 mm 0.00 in0.0 mm 0.00 in0.0 mm
12:09 PM 59.9°F15.5°C 42.8°F6.0°C 53% 9.2 mph E14.8 kmh E 12.1 mph19.5 kmh 29.97 in1014.9 mb 0.00 in0.0 mm 0.00 in0.0 mm 0.00 in0.0 mm
11:59 AM 59.7°F15.4°C 44.4°F6.9°C 57% 6.0 mph NE9.7 kmh NE 14.5 mph23.3 kmh 29.96 in1014.6 mb 0.00 in0.0 mm 0.00 in0.0 mm 0.00 in0.0 mm
11:49 AM 59.0°F15.0°C 44.2°F6.8°C 58% 7.6 mph E12.2 kmh E 11.4 mph18.3 kmh 29.96 in1014.6 mb 0.00 in0.0 mm 0.00 in0.0 mm 0.00 in0.0 mm
11:38 AM 58.1°F14.5°C 44.8°F7.1°C 61% 7.6 mph E12.2 kmh E 10.7 mph17.2 kmh 29.96 in1014.6 mb 0.00 in0.0 mm 0.00 in0.0 mm 0.00 in0.0 mm
11:28 AM 57.0°F13.9°C 44.1°F6.7°C 62% 6.9 mph E11.1 kmh E 11.4 mph18.3 kmh 29.96 in1014.6 mb 0.00 in0.0 mm 0.00 in0.0 mm 0.00 in0.0 mm
11:18 AM 56.7°F13.7°C 45.0°F7.2°C 65% 7.6 mph ENE12.2 kmh ENE 11.4 mph18.3 kmh 29.96 in1014.6 mb 0.00 in0.0 mm 0.00 in0.0 mm 0.00 in0.0 mm
11:08 AM 55.6°F13.1°C 46.0°F7.8°C 70% 3.1 mph E5.0 kmh E 9.2 mph14.8 kmh 29.96 in1014.6 mb 0.00 in0.0 mm 0.00 in0.0 mm 0.00 in0.0 mm
10:58 AM 55.0°F12.8°C 45.9°F7.7°C 71% 5.4 mph E8.7 kmh E 9.8 mph15.8 kmh 29.97 in1014.9 mb 0.00 in0.0 mm 0.00 in0.0 mm 0.00 in0.0 mm
10:48 AM 54.3°F12.4°C 45.9°F7.7°C 73% 7.6 mph E12.2 kmh E 9.8 mph15.8 kmh 29.97 in1014.9 mb 0.00 in0.0 mm 0.00 in0.0 mm 0.00 in0.0 mm
10:38 AM 53.4°F11.9°C 46.4°F8.0°C 77% 5.4 mph E8.7 kmh E 9.2 mph14.8 kmh 29.97 in1014.9 mb 0.00 in0.0 mm 0.00 in0.0 mm 0.00 in0.0 mm
10:28 AM 52.9°F11.6°C 47.3°F8.5°C 81% 3.8 mph E6.1 kmh E 6.9 mph11.1 kmh 29.96 in1014.6 mb 0.00 in0.0 mm 0.00 in0.0 mm 0.00 in0.0 mm
10:18 AM 51.8°F11.0°C 46.8°F8.2°C 83% 3.8 mph E6.1 kmh E 8.3 mph13.4 kmh 29.96 in1014.6 mb 0.00 in0.0 mm 0.00 in0.0 mm 0.00 in0.0 mm
10:08 AM 50.9°F10.5°C 48.0°F8.9°C 90% 4.5 mph E7.2 kmh E 6.0 mph9.7 kmh 29.96 in1014.6 mb 0.00 in0.0 mm 0.00 in0.0 mm 0.00 in0.0 mm
09:57 AM 50.2°F10.1°C 48.0°F8.9°C 92% 2.2 mph E3.5 kmh E 6.0 mph9.7 kmh 29.96 in1014.6 mb 0.00 in0.0 mm 0.00 in0.0 mm 0.00 in0.0 mm
09:47 AM 49.6°F9.8°C 47.7°F8.7°C 93% 2.2 mph E3.5 kmh E 3.8 mph6.1 kmh 29.96 in1014.6 mb 0.00 in0.0 mm 0.00 in0.0 mm 0.00 in0.0 mm
09:37 AM 48.6°F9.2°C 46.9°F8.3°C 94% 0.7 mph ESE1.1 kmh ESE 3.1 mph5.0 kmh 29.96 in1014.6 mb 0.00 in0.0 mm 0.00 in0.0 mm 0.00 in0.0 mm
09:27 AM 47.3°F8.5°C 45.7°F7.6°C 94% 0.7 mph ESE1.1 kmh ESE 1.6 mph2.6 kmh 29.96 in1014.6 mb 0.00 in0.0 mm 0.00 in0.0 mm 0.00 in0.0 mm
09:17 AM 46.6°F8.1°C 44.6°F7.0°C 93% Calm Calm 1.6 mph2.6 kmh 29.95 in1014.2 mb 0.00 in0.0 mm 0.00 in0.0 mm 0.00 in0.0 mm
09:07 AM 46.0°F7.8°C 44.1°F6.7°C 93% Calm Calm 2.2 mph3.5 kmh 29.95 in1014.2 mb 0.00 in0.0 mm 0.00 in0.0 mm 0.00 in0.0 mm
08:57 AM 45.7°F7.6°C 43.7°F6.5°C 93% Calm Calm 1.6 mph2.6 kmh 29.94 in1013.9 mb 0.00 in0.0 mm 0.00 in0.0 mm 0.00 in0.0 mm
08:47 AM 45.7°F7.6°C 43.7°F6.5°C 93% Calm Calm 3.1 mph5.0 kmh 29.95 in1014.2 mb 0.00 in0.0 mm 0.00 in0.0 mm 0.00 in0.0 mm
08:37 AM 45.1°F7.3°C 43.2°F6.2°C 93% 0.7 mph S1.1 kmh S 2.2 mph3.5 kmh 29.94 in1013.9 mb 0.00 in0.0 mm 0.00 in0.0 mm 0.00 in0.0 mm
08:27 AM 44.8°F7.1°C 42.6°F5.9°C 92% Calm Calm 3.1 mph5.0 kmh 29.93 in1013.5 mb 0.00 in0.0 mm 0.00 in0.0 mm 0.00 in0.0 mm
08:16 AM 44.6°F7.0°C 42.4°F5.8°C 92% 1.6 mph S2.6 kmh S 2.2 mph3.5 kmh 29.93 in1013.5 mb 0.00 in0.0 mm 0.00 in0.0 mm 0.00 in0.0 mm
08:06 AM 44.6°F7.0°C 42.4°F5.8°C 92% 0.7 mph S1.1 kmh S 3.8 mph6.1 kmh 29.93 in1013.5 mb 0.00 in0.0 mm 0.00 in0.0 mm 0.00 in0.0 mm
07:56 AM 44.6°F7.0°C 42.1°F5.6°C 91% 2.2 mph S3.5 kmh S 4.5 mph7.2 kmh 29.94 in1013.9 mb 0.00 in0.0 mm 0.00 in0.0 mm 0.00 in0.0 mm
07:46 AM 44.6°F7.0°C 42.1°F5.6°C 91% 3.1 mph S5.0 kmh S 4.5 mph7.2 kmh 29.93 in1013.5 mb 0.00 in0.0 mm 0.00 in0.0 mm 0.00 in0.0 mm
07:36 AM 44.2°F6.8°C 41.5°F5.3°C 90% 3.1 mph S5.0 kmh S 3.8 mph6.1 kmh 29.93 in1013.5 mb 0.00 in0.0 mm 0.00 in0.0 mm 0.00 in0.0 mm
07:26 AM 44.4°F6.9°C 41.4°F5.2°C 89% 1.6 mph S2.6 kmh S 2.2 mph3.5 kmh 29.93 in1013.5 mb 0.00 in0.0 mm 0.00 in0.0 mm 0.00 in0.0 mm
07:16 AM 44.4°F6.9°C 41.4°F5.2°C 89% 0.7 mph SW1.1 kmh SW 3.1 mph5.0 kmh 29.93 in1013.5 mb 0.00 in0.0 mm 0.00 in0.0 mm 0.00 in0.0 mm
07:06 AM 44.8°F7.1°C 41.7°F5.4°C 89% 2.2 mph SW3.5 kmh SW 3.1 mph5.0 kmh 29.92 in1013.2 mb 0.00 in0.0 mm 0.00 in0.0 mm 0.00 in0.0 mm
06:56 AM 44.8°F7.1°C 41.7°F5.4°C 89% 1.6 mph SW2.6 kmh SW 3.1 mph5.0 kmh 29.92 in1013.2 mb 0.00 in0.0 mm 0.00 in0.0 mm 0.00 in0.0 mm
06:45 AM 44.8°F7.1°C 41.4°F5.2°C 88% 1.6 mph S2.6 kmh S 2.2 mph3.5 kmh 29.91 in1012.9 mb 0.00 in0.0 mm 0.00 in0.0 mm 0.00 in0.0 mm
06:35 AM 44.6°F7.0°C 41.2°F5.1°C 88% Calm Calm 1.6 mph2.6 kmh 29.92 in1013.2 mb 0.00 in0.0 mm 0.00 in0.0 mm 0.00 in0.0 mm
06:25 AM 44.6°F7.0°C 41.2°F5.1°C 88% 0.7 mph SW1.1 kmh SW 1.6 mph2.6 kmh 29.91 in1012.9 mb 0.00 in0.0 mm 0.00 in0.0 mm 0.00 in0.0 mm
06:15 AM 44.6°F7.0°C 41.0°F5.0°C 87% Calm Calm 3.1 mph5.0 kmh 29.91 in1012.9 mb 0.00 in0.0 mm 0.00 in0.0 mm 0.00 in0.0 mm
06:05 AM 44.8°F7.1°C 41.2°F5.1°C 87% 1.6 mph SW2.6 kmh SW 5.4 mph8.7 kmh 29.91 in1012.9 mb 0.00 in0.0 mm 0.00 in0.0 mm 0.00 in0.0 mm
05:55 AM 44.8°F7.1°C 41.2°F5.1°C 87% 3.8 mph WSW6.1 kmh WSW 6.0 mph9.7 kmh 29.91 in1012.9 mb 0.00 in0.0 mm 0.00 in0.0 mm 0.00 in0.0 mm
05:45 AM 45.0°F7.2°C 41.0°F5.0°C 86% 3.1 mph W5.0 kmh W 3.8 mph6.1 kmh 29.91 in1012.9 mb 0.00 in0.0 mm 0.00 in0.0 mm 0.00 in0.0 mm
05:35 AM 45.3°F7.4°C 41.0°F5.0°C 85% 1.6 mph W2.6 kmh W 4.5 mph7.2 kmh 29.90 in1012.5 mb 0.00 in0.0 mm 0.00 in0.0 mm 0.00 in0.0 mm
05:25 AM 45.3°F7.4°C 41.0°F5.0°C 85% 3.1 mph WSW5.0 kmh WSW 4.5 mph7.2 kmh 29.90 in1012.5 mb 0.00 in0.0 mm 0.00 in0.0 mm 0.00 in0.0 mm
05:15 AM 45.9°F7.7°C 41.5°F5.3°C 85% 2.2 mph SW3.5 kmh SW 3.8 mph6.1 kmh 29.89 in1012.2 mb 0.00 in0.0 mm 0.00 in0.0 mm 0.00 in0.0 mm
05:04 AM 45.9°F7.7°C 41.4°F5.2°C 84% 2.2 mph SW3.5 kmh SW 4.5 mph7.2 kmh 29.88 in1011.9 mb 0.00 in0.0 mm 0.00 in0.0 mm 0.00 in0.0 mm
04:54 AM 46.0°F7.8°C 41.5°F5.3°C 84% 3.1 mph SW5.0 kmh SW 4.5 mph7.2 kmh 29.89 in1012.2 mb 0.00 in0.0 mm 0.00 in0.0 mm 0.00 in0.0 mm
04:44 AM 46.0°F7.8°C 41.2°F5.1°C 83% 3.1 mph SW5.0 kmh SW 5.4 mph8.7 kmh 29.88 in1011.9 mb 0.00 in0.0 mm 0.00 in0.0 mm 0.00 in0.0 mm
04:34 AM 46.0°F7.8°C 41.2°F5.1°C 83% 3.8 mph SW6.1 kmh SW 6.0 mph9.7 kmh 29.88 in1011.9 mb 0.00 in0.0 mm 0.00 in0.0 mm 0.00 in0.0 mm
04:24 AM 46.2°F7.9°C 41.4°F5.2°C 83% 3.8 mph SW6.1 kmh SW 5.4 mph8.7 kmh 29.88 in1011.9 mb 0.00 in0.0 mm 0.00 in0.0 mm 0.00 in0.0 mm
04:14 AM 46.2°F7.9°C 41.4°F5.2°C 83% 3.1 mph SW5.0 kmh SW 6.0 mph9.7 kmh 29.88 in1011.9 mb 0.00 in0.0 mm 0.00 in0.0 mm 0.00 in0.0 mm
04:04 AM 46.0°F7.8°C 40.8°F4.9°C 82% 2.2 mph SW3.5 kmh SW 6.0 mph9.7 kmh 29.89 in1012.2 mb 0.00 in0.0 mm 0.00 in0.0 mm 0.00 in0.0 mm
03:54 AM 45.9°F7.7°C 40.6°F4.8°C 82% 3.8 mph SW6.1 kmh SW 5.4 mph8.7 kmh 29.89 in1012.2 mb 0.00 in0.0 mm 0.00 in0.0 mm 0.00 in0.0 mm
03:44 AM 46.0°F7.8°C 40.5°F4.7°C 81% 1.6 mph SW2.6 kmh SW 3.8 mph6.1 kmh 29.88 in1011.9 mb 0.00 in0.0 mm 0.00 in0.0 mm 0.00 in0.0 mm
03:34 AM 46.0°F7.8°C 40.3°F4.6°C 80% 2.2 mph W3.5 kmh W 3.8 mph6.1 kmh 29.88 in1011.9 mb 0.00 in0.0 mm 0.00 in0.0 mm 0.00 in0.0 mm
03:23 AM 46.4°F8.0°C 40.3°F4.6°C 79% 1.6 mph SW2.6 kmh SW 3.1 mph5.0 kmh 29.88 in1011.9 mb 0.00 in0.0 mm 0.00 in0.0 mm 0.00 in0.0 mm
03:13 AM 46.6°F8.1°C 40.5°F4.7°C 79% 1.6 mph SW2.6 kmh SW 5.4 mph8.7 kmh 29.88 in1011.9 mb 0.00 in0.0 mm 0.00 in0.0 mm 0.00 in0.0 mm
03:03 AM 46.8°F8.2°C 40.3°F4.6°C 78% 3.1 mph WSW5.0 kmh WSW -- 29.90 in1012.5 mb 0.00 in0.0 mm 0.00 in0.0 mm 0.00 in0.0 mm
02:58 AM 46.8°F8.2°C 40.3°F4.6°C 78% 3.1 mph WSW5.0 kmh WSW 5.4 mph8.7 kmh 29.90 in1012.5 mb 0.00 in0.0 mm 0.00 in0.0 mm 0.00 in0.0 mm
02:48 AM 46.9°F8.3°C 40.5°F4.7°C 78% 3.1 mph SW5.0 kmh SW 5.4 mph8.7 kmh 29.89 in1012.2 mb 0.00 in0.0 mm 0.00 in0.0 mm 0.00 in0.0 mm
02:38 AM 47.1°F8.4°C 40.3°F4.6°C 77% 3.1 mph SW5.0 kmh SW 4.5 mph7.2 kmh 29.89 in1012.2 mb 0.00 in0.0 mm 0.00 in0.0 mm 0.00 in0.0 mm
02:28 AM 47.1°F8.4°C 39.9°F4.4°C 76% 3.1 mph W5.0 kmh W 4.5 mph7.2 kmh 29.89 in1012.2 mb 0.00 in0.0 mm 0.00 in0.0 mm 0.00 in0.0 mm
02:18 AM 47.3°F8.5°C 39.7°F4.3°C 75% 3.1 mph SW5.0 kmh SW 4.5 mph7.2 kmh 29.89 in1012.2 mb 0.00 in0.0 mm 0.00 in0.0 mm 0.00 in0.0 mm
02:07 AM 47.5°F8.6°C 39.6°F4.2°C 74% 3.1 mph W5.0 kmh W 4.5 mph7.2 kmh 29.89 in1012.2 mb 0.00 in0.0 mm 0.00 in0.0 mm 0.00 in0.0 mm
01:57 AM 47.7°F8.7°C 39.4°F4.1°C 73% 1.6 mph SW2.6 kmh SW 5.4 mph8.7 kmh 29.90 in1012.5 mb 0.00 in0.0 mm 0.00 in0.0 mm 0.00 in0.0 mm
01:47 AM 47.8°F8.8°C 39.2°F4.0°C 72% 1.6 mph SW2.6 kmh SW 5.4 mph8.7 kmh 29.90 in1012.5 mb 0.00 in0.0 mm 0.00 in0.0 mm 0.00 in0.0 mm
01:37 AM 48.4°F9.1°C 39.4°F4.1°C 71% 3.1 mph SW5.0 kmh SW 7.6 mph12.2 kmh 29.90 in1012.5 mb 0.00 in0.0 mm 0.00 in0.0 mm 0.00 in0.0 mm
01:17 AM 49.3°F9.6°C 39.2°F4.0°C 68% 4.5 mph W7.2 kmh W 6.0 mph9.7 kmh 29.90 in1012.5 mb 0.00 in0.0 mm 0.00 in0.0 mm 0.00 in0.0 mm
01:07 AM 49.5°F9.7°C 39.4°F4.1°C 68% 2.2 mph SW3.5 kmh SW 6.9 mph11.1 kmh 29.90 in1012.5 mb 0.00 in0.0 mm 0.00 in0.0 mm 0.00 in0.0 mm
12:57 AM 50.2°F10.1°C 39.6°F4.2°C 67% 5.4 mph W8.7 kmh W 7.6 mph12.2 kmh 29.91 in1012.9 mb 0.00 in0.0 mm 0.00 in0.0 mm 0.00 in0.0 mm
12:47 AM 49.8°F9.9°C 39.7°F4.3°C 68% 3.1 mph W5.0 kmh W 6.9 mph11.1 kmh 29.89 in1012.2 mb 0.00 in0.0 mm 0.00 in0.0 mm 0.00 in0.0 mm
12:36 AM 49.8°F9.9°C 39.4°F4.1°C 67% 3.8 mph W6.1 kmh W 5.4 mph8.7 kmh 29.89 in1012.2 mb 0.00 in0.0 mm 0.00 in0.0 mm 0.00 in0.0 mm
12:26 AM 50.4°F10.2°C 39.7°F4.3°C 67% 3.1 mph W5.0 kmh W 6.0 mph9.7 kmh 29.88 in1011.9 mb 0.00 in0.0 mm 0.00 in0.0 mm 0.00 in0.0 mm
12:16 AM 50.5°F10.3°C 39.9°F4.4°C 67% 3.8 mph W6.1 kmh W 6.9 mph11.1 kmh 29.88 in1011.9 mb 0.00 in0.0 mm 0.00 in0.0 mm 0.00 in0.0 mm
12:06 AM 50.9°F10.5°C 39.9°F4.4°C 66% 4.5 mph W7.2 kmh W 6.0 mph9.7 kmh 29.88 in1011.9 mb 0.00 in0.0 mm 0.00 in0.0 mm 0.00 in0.0 mm